Days Creek, Oregon
Current Conditions -  °F | °C
As of 9:53 AM on Monday 24 Nov 2014 (Local Time) from KRBG Reporting Station
Clear Clear  
Wind Chill: 41°   Ceiling: Unl
Heat Index: 44°   Visibility: 10mi
Dew Point: 38°   Wind: 6mph
Humidity: 79%   Direction: 150°SSE
Pressure: 30.42"   Gusts: NA
Location:  42.97°N, 123.17°W
Report Text: KRBG 241753Z AUTO 15005KT 10SM CLR 07/03 A3042 RMK AO2 SLP304 T00670033 10067 20022 51005 TSNO
Loading
Personal Weather Stations






























Interactive Weather Map New forecast layout! Learn more

10-Day Weather Forecast

Advertisements
Track Severe Weather on mobile